Ledyard, CT

3:05 AM EDT on April 25, 2015 (GMT -0400)
Parsonage Hill | | Change Station
CLOSE
Current Station
Personal Weather Station
Location: Ledyard, CT
Elevation: 400 ft
Nearby Weather Stations
Active Advisory: Freeze Warning

Elev 400 ft 41.46 °N, 72.00 °W | Updated 0 second ago

Clear
Clear
32.0 °F
Feels Like 32 °F
N
0.0
Wind Variable Wind from WNW
Gusts 0.0 mph

Today
High -- | Low -- °F
--% Chance of Precip.
Yesterday
High -- | Low -- °F
Precip. -- in
5:53 AM 7:38 PM
Waxing Crescent, 43% visible
Pressure 29.84 in
Visibility 10.0 miles
Clouds Clear
Windchill 32 °F
Dew Point 10 °F
Humidity 40%
Rainfall 0.00 in
Snow Depth Not available.
UV 0 out of 12
Pollen 10.70 out of 12
Air Quality Not available.
Flu Activity Widespread
METAR KGON 250656Z AUTO 26006KT 10SM CLR 02/M06 A2984 RMK AO2 SLP103 T00171061

More Conditions Fewer Conditions

Pressure 29.84 in
Visibility 10.0 miles
Clouds Clear
Windchill 32 °F
Dew Point 10 °F
Humidity 40%
Rainfall 0.00 in
Snow Depth Not available.
UV 0 out of 12
Pollen 10.70 out of 12
Air Quality Not available.
Flu Activity Widespread
METAR KGON 250656Z AUTO 26006KT 10SM CLR 02/M06 A2984 RMK AO2 SLP103 T00171061

More Conditions Fewer Conditions

10-Day Weather Forecast

Almanac

Astronomy

Apr. 25, 2015 Rise Set
Actual Time
Civil Twilight
Nautical Twilight
Astronomical Twilight
Moon
Length of Visible Light
Length of Day
Tomorrow will be .
, % of the Moon is Illuminated

Today's Extremes

State Highs State Lows

Community

WunderPhotos

Upload Photos

1,816,624 photos uploaded!

WunderBlogs® & News

Nearby

Air Quality

  Air Quality AQ Index Pollutant
Not available.

Snow Depth

Station Depth Elevation

Earthquake Activity

City Distance Mag. Time & Date
Minimum magnitude displayed is 2.5.

Coastal Water Temperatures

Place Temperature

Stations

Nearby Weather Stations

Station Location Temp. Windchill Dew Point Humidity Wind Precip. Elev Updated Type
                   
Freeze Warning
Statement as of 3:47 PM EDT on April 24, 2015

... Freeze warning in effect from 1 am to 9 am EDT Saturday...

The National Weather Service in Upton has issued a freeze
warning... which is in effect from 1 am to 9 am EDT Saturday. The
freeze watch is no longer in effect.

* Locations... interior southern Connecticut... the lower Hudson
Valley... and interior portions of northeastern New Jersey.

* Hazards... sub-freezing temperatures.

* Temperatures... mid 20s to around 30.

* Timing... late tonight through early Saturday morning.

* Impacts... the sub-freezing temperatures will kill crops and
other sensitive vegetation.

Precautionary/preparedness actions...

A freeze warning means below freezing temperatures are imminent
or highly likely. These conditions will kill crops and other
sensitive vegetation.